Minnekata, South Dakota
Current Conditions -  °F | °C
As of 8:53 PM on Wednesday 26 Nov 2014 (Local Time) from KCUT Reporting Station
Overcast Overcast  
Wind Chill: 23°   Ceiling: 4700
Heat Index: 23°   Visibility: 10mi
Dew Point: 19°   Wind: 3mph
Humidity: 85%   Direction: 250°WSW
Pressure: 30.17"   Gusts: NA
Location:  43.346°N, 103.483°W
Report Text: KCUT 270353Z AUTO 25003KT 10SM OVC047 M05/M07 A3017 RMK AO2 SLP265 T10501072
Loading
Personal Weather Stations






























Interactive Weather Map New forecast layout! Learn more

10-Day Weather Forecast

Advertisements
Track Severe Weather on mobile